^^
Station Historical Data
Daily Summary for January 18, 2017 Units:  Metric    English   Both
« Previous Day
Next Day »
Daily Weekly Monthly Yearly Custom
  High: Low: Average:
Temperature: 39.1 °C 25.1 °C 32.4 °C
Dew Point: 15.4 °C 2.9 °C 10.8 °C
Humidity: 43% 16% 27%
Wind Speed: 37km/h 0km/h 8.9km/h
Wind Gust: 38.6km/h - -
Wind- - South
Pressure: 1007.3 hPa 1001.6 hPa -
Precipitation: 0 mm    
Historical Graphs
 
 
Tabular Data for January 18, 2017
Time Temperature Dew Point Pressure Wind Wind Speed Wind Gust Humidity Rainfall Rate (Hourly) solar Conditions
02:56 26.1 °C 3.3 °C 1004.3 hPa Calm     23% 0 mm 0.0 W/m2
03:07 25.9 °C 3.2 °C 1003.9 hPa Calm     23% 0 mm 0.0 W/m2
03:11 25.8 °C 3.1 °C 1003.9 hPa Calm     23% 0 mm 0.0 W/m2
03:59 26.1 °C 3.3 °C 1003.9 hPa Calm     23% 0 mm 0.0 W/m2
04:15 25.6 °C 2.9 °C 1003.9 hPa Calm     23% 0 mm 0.0 W/m2
04:20 25.5 °C 3.4 °C 1003.9 hPa Calm     24% 0 mm 0.0 W/m2
04:25 25.5 °C 3.4 °C 1003.9 hPa Calm     24% 0 mm 0.0 W/m2
04:30 25.3 °C 3.3 °C 1003.9 hPa Calm     24% 0 mm 0.0 W/m2
04:40 25.2 °C 3.2 °C 1003.9 hPa Calm     24% 0 mm 0.0 W/m2
05:00 25.5 °C 3.4 °C 1004.3 hPa Calm     24% 0 mm 0.0 W/m2
05:16 25.2 °C 4.3 °C 1004.3 hPa Calm     26% 0 mm 0.0 W/m2
05:26 25.1 °C 4.2 °C 1004.3 hPa Calm     26% 0 mm 0.0 W/m2
05:37 25.1 °C 5.3 °C 1004.6 hPa Calm     28% 0 mm 0.0 W/m2
05:47 25.1 °C 5.8 °C 1004.6 hPa Calm     29% 0 mm 0.0 W/m2
05:53 25.3 °C 7 °C 1004.6 hPa Calm     31% 0 mm 0.0 W/m2
06:03 25.5 °C 9.3 °C 1004.6 hPa Calm     36% 0 mm 0.0 W/m2
06:14 26.8 °C 13.2 °C 1005 hPa Calm     43% 0 mm 0.0 W/m2
06:24 28.6 °C 13.7 °C 1005 hPa Calm     40% 0 mm 14.0 W/m2
06:46 29.3 °C 14.3 °C 1005 hPa SE 1.4 km/h 11.3 km/h 40% 0 mm 32.0 W/m2
07:00 30.1 °C 14.2 °C 1005.3 hPa East 9.7 km/h 17.7 km/h 38% 0 mm 86.0 W/m2
07:05 30.3 °C 14.4 °C 1005.3 hPa East 4.7 km/h 14.5 km/h 38% 0 mm 104.0 W/m2
07:08 30.4 °C 14.5 °C 1005.3 hPa ENE 9.7 km/h 20.9 km/h 38% 0 mm 120.0 W/m2
07:15 30.6 °C 14.7 °C 1005.3 hPa NE 9.7 km/h 17.7 km/h 38% 0 mm 141.0 W/m2
07:21 30.7 °C 14.8 °C 1005.3 hPa NNE 19.5 km/h 24.1 km/h 38% 0 mm 160.0 W/m2
07:32 30.9 °C 14.9 °C 1005.6 hPa NNE 14.3 km/h 25.7 km/h 38% 0 mm 202.0 W/m2
07:39 31.1 °C 14.7 °C 1005.6 hPa NNE 11.1 km/h 24.1 km/h 37% 0 mm 239.0 W/m2
07:44 31.2 °C 14.8 °C 1005.6 hPa NNE 14.3 km/h 29 km/h 37% 0 mm 257.0 W/m2
07:49 31.2 °C 14.8 °C 1005.6 hPa NE 13 km/h 22.5 km/h 37% 0 mm 269.0 W/m2
07:55 31.3 °C 14.9 °C 1005.6 hPa North 14.3 km/h 22.5 km/h 37% 0 mm 288.0 W/m2
10:04 33.7 °C 15.2 °C 1005.6 hPa NNW 14.3 km/h 38.6 km/h 33% 0 mm 715.0 W/m2
10:14 33.9 °C 15.4 °C 1005.6 hPa NNE 14.3 km/h 20.9 km/h 33% 0 mm 745.0 W/m2
10:34 34.4 °C 15.3 °C 1005.3 hPa North 17.7 km/h 38.6 km/h 32% 0 mm 782.0 W/m2
10:41 34.6 °C 15 °C 1005.6 hPa NNE 14.3 km/h 29 km/h 31% 0 mm 805.0 W/m2
10:47 34.4 °C 14.8 °C 1005.3 hPa NW 20.9 km/h 29 km/h 31% 0 mm 821.0 W/m2
10:52 34.6 °C 14.5 °C 1005.3 hPa NNE 17.7 km/h 33.8 km/h 30% 0 mm 833.0 W/m2
10:54 34.7 °C 14.6 °C 1005.3 hPa NNE 25.9 km/h 33.8 km/h 30% 0 mm 838.0 W/m2
10:59 34.8 °C 14.7 °C 1005.3 hPa NNE 7.9 km/h 22.5 km/h 30% 0 mm 849.0 W/m2
11:06 35.1 °C 14.9 °C 1005.3 hPa NNW 11.1 km/h 27.4 km/h 30% 0 mm 861.0 W/m2
11:09 35.3 °C 14.6 °C 1005.3 hPa NNW 7.9 km/h 29 km/h 29% 0 mm 874.0 W/m2
11:14 35.4 °C 14.7 °C 1005.3 hPa NNE 16.3 km/h 20.9 km/h 29% 0 mm 886.0 W/m2
11:31 35.6 °C 14.8 °C 1005 hPa NW 30.6 km/h 38.6 km/h 29% 0 mm 896.0 W/m2
11:39 36.1 °C 14.1 °C 1005 hPa NNW 22.7 km/h 33.8 km/h 27% 0 mm 921.0 W/m2
11:55 36.2 °C 14.2 °C 1005 hPa NNW 25.9 km/h 25.9 km/h 27% 0 mm 949.0 W/m2
12:13 36.5 °C 14.5 °C 1004.6 hPa NW 6.4 km/h 17.7 km/h 27% 0 mm 956.0 W/m2
12:20 36.8 °C 13.5 °C 1004.6 hPa NNW 6.4 km/h 24.1 km/h 25% 0 mm 983.0 W/m2
12:27 37.1 °C 13.2 °C 1004.6 hPa North 11.1 km/h 25.7 km/h 24% 0 mm 1002.0 W/m2
12:30 37.2 °C 13.3 °C 1004.6 hPa NNW 1.4 km/h 29 km/h 24% 0 mm 1016.0 W/m2
12:43 37.5 °C 12.2 °C 1004.3 hPa North 17.7 km/h 24.1 km/h 22% 0 mm 1016.0 W/m2
12:45 37.2 °C 12.6 °C 1004.3 hPa NNW 1.4 km/h 17.7 km/h 23% 0 mm 1048.0 W/m2
12:53 37.2 °C 13.3 °C 1003.9 hPa North 27.4 km/h 32.2 km/h 24% 0 mm 1037.0 W/m2
12:55 37.7 °C 13 °C 1003.9 hPa NNE 13 km/h 22.5 km/h 23% 0 mm 1023.0 W/m2
13:05 37.7 °C 12.3 °C 1003.9 hPa NE 3.2 km/h 9.7 km/h 22% 0 mm 1027.0 W/m2
13:20 37.9 °C 12.5 °C 1003.6 hPa NW 19.5 km/h 22.5 km/h 22% 0 mm 1079.0 W/m2
13:35 37.9 °C 11.8 °C 1003.6 hPa Calm     21% 0 mm 1067.0 W/m2
13:50 38.4 °C 10.7 °C 1003.3 hPa NE 6.4 km/h 14.5 km/h 19% 0 mm 1002.0 W/m2
14:06 38.6 °C 9.2 °C 1003.3 hPa Calm   19.3 km/h 17% 0 mm 1014.0 W/m2
14:13 38.6 °C 9.2 °C 1003.3 hPa Calm   19.3 km/h 17% 0 mm 1014.0 W/m2
14:21 39.1 °C 9.6 °C 1002.6 hPa NW 11.1 km/h 16.1 km/h 17% 0 mm 1009.0 W/m2
14:37 37.8 °C 10.2 °C 1002.6 hPa Calm   11.3 km/h 19% 0 mm 561.0 W/m2
14:44 37.8 °C 10.2 °C 1002.6 hPa Calm   11.3 km/h 19% 0 mm 561.0 W/m2
14:58 37.8 °C 9.4 °C 1002.3 hPa North 1.4 km/h 12.9 km/h 18% 0 mm 258.0 W/m2
15:07 37.8 °C 10.2 °C 1001.9 hPa Calm     19% 0 mm 190.0 W/m2
15:24 37.4 °C 9.9 °C 1001.9 hPa Calm     19% 0 mm 158.0 W/m2
15:33 37.6 °C 10 °C 1001.6 hPa NNE 6.4 km/h 14.5 km/h 19% 0 mm 529.0 W/m2
15:54 37.3 °C 9.8 °C 1001.6 hPa NNW 9.7 km/h 20.9 km/h 19% 0 mm 116.0 W/m2
16:03 37.2 °C 9.7 °C 1001.9 hPa NW 37 km/h 37 km/h 19% 0 mm 77.0 W/m2
16:13 35.1 °C 11.5 °C 1001.9 hPa WNW 22.7 km/h 37 km/h 24% 0 mm 63.0 W/m2
16:35 33.3 °C 11.8 °C 1002.3 hPa SW 24.1 km/h 27.4 km/h 27% 0 mm 95.0 W/m2
16:50 33.2 °C 11.7 °C 1002.3 hPa SSW 13 km/h 19.3 km/h 27% 0 mm 113.0 W/m2
16:58 33.1 °C 11.6 °C 1002.3 hPa SSW 11.1 km/h 12.9 km/h 27% 0 mm 113.0 W/m2
17:14 33 °C 12.1 °C 1001.6 hPa SSW 16.3 km/h 16.3 km/h 28% 0 mm 209.0 W/m2
17:45 36.3 °C 9 °C 1001.6 hPa Calm     19% 0 mm 496.0 W/m2
18:00 36.7 °C 9.3 °C 1001.6 hPa Calm     19% 0 mm 113.0 W/m2
18:21 36.2 °C 6.4 °C 1001.9 hPa Calm     16% 0 mm 90.0 W/m2
18:25 34.9 °C 11.3 °C 1002.6 hPa SW 13 km/h 17.7 km/h 24% 0 mm 90.0 W/m2
18:30 34.9 °C 11.3 °C 1002.6 hPa SW 13 km/h 17.7 km/h 24% 0 mm 90.0 W/m2
18:40 34.3 °C 11.4 °C 1002.6 hPa WSW 16.3 km/h 24.1 km/h 25% 0 mm 83.0 W/m2
18:50 33.8 °C 12.2 °C 1002.9 hPa WSW 20.9 km/h 25.7 km/h 27% 0 mm 67.0 W/m2
18:56 33.6 °C 12.6 °C 1003.3 hPa WSW 17.7 km/h 20.9 km/h 28% 0 mm 53.0 W/m2
19:16 32.7 °C 11.3 °C 1003.6 hPa SW 22.7 km/h 30.6 km/h 27% 0 mm 32.0 W/m2
19:27 32.2 °C 10.8 °C 1003.9 hPa South 17.7 km/h 20.9 km/h 27% 0 mm 32.0 W/m2
19:36 31.4 °C 10.7 °C 1004.3 hPa South 6.4 km/h 14.5 km/h 28% 0 mm 9.0 W/m2
19:51 31.2 °C 11.1 °C 1004.6 hPa Calm     29% 0 mm 0.0 W/m2
20:07 31 °C 10.9 °C 1004.6 hPa Calm     29% 0 mm 0.0 W/m2
20:30 30.9 °C 10.3 °C 1005 hPa Calm     28% 0 mm 0.0 W/m2
20:37 30.9 °C 10.8 °C 1005.6 hPa Calm     29% 0 mm 0.0 W/m2
20:53 30.7 °C 11.6 °C 1005.6 hPa Calm     31% 0 mm 0.0 W/m2
21:08 30.6 °C 12.5 °C 1005.6 hPa Calm     33% 0 mm 0.0 W/m2
21:18 30.5 °C 11.5 °C 1005.6 hPa Calm     31% 0 mm 0.0 W/m2
21:28 30.4 °C 10.9 °C 1006 hPa Calm     30% 0 mm 0.0 W/m2
21:48 29.9 °C 9.9 °C 1006.3 hPa South 14.3 km/h 17.7 km/h 29% 0 mm 0.0 W/m2
21:54 29.4 °C 9 °C 1006.3 hPa SSW 13 km/h 16.1 km/h 28% 0 mm 0.0 W/m2
22:09 28.8 °C 10 °C 1006.7 hPa SSW 9.7 km/h 11.3 km/h 31% 0 mm 0.0 W/m2
22:24 27.8 °C 9.1 °C 1007 hPa SW 16.3 km/h 19.3 km/h 31% 0 mm 0.0 W/m2
22:39 27.5 °C 8.4 °C 1007.3 hPa SW 11.1 km/h 20.9 km/h 30% 0 mm 0.0 W/m2
22:44 27.2 °C 8.1 °C 1007.3 hPa SW 16.3 km/h 22.5 km/h 30% 0 mm 0.0 W/m2
23:01 26.8 °C 8.7 °C 1007.3 hPa SW 16.3 km/h 22.5 km/h 32% 0 mm 0.0 W/m2
Canyon Roadhouse, Fishriver Canyon, Namibia
Compliments of Weather Underground - 2 mb